Cascade, Maryland
Current Conditions -  °F | °C
As of 10:53 AM on Monday 24 Nov 2014 (Local Time) from KRYT Reporting Station
Clear Clear  
Wind Chill: 65°   Ceiling: Unl
Heat Index: 65°   Visibility: 10mi
Dew Point: 53°   Wind: 9mph
Humidity: 65%   Direction: 220°SW
Pressure: 29.61"   Gusts: 21mph
Location:  39.71°N, 77.49°W
Report Text: KRYT 241553Z AUTO 22008G18KT 170V250 10SM CLR 18/12 A2961 RMK AO2 SLP025 T01830117 $
Loading
Personal Weather Stations






























Interactive Weather Map New forecast layout! Learn more

10-Day Weather Forecast

Advertisements
Track Severe Weather on mobile